createdAt,value
2023-04-22T00:02:41.674Z,10.80
2023-04-22T00:07:48.658Z,10.74
2023-04-22T00:12:50.350Z,10.68
2023-04-22T00:17:52.210Z,10.59
2023-04-22T00:22:53.919Z,10.53
2023-04-22T00:27:55.815Z,10.48
2023-04-22T00:32:57.619Z,10.42
2023-04-22T00:37:59.408Z,10.41
2023-04-22T00:43:01.996Z,10.35
2023-04-22T00:48:04.001Z,10.24
2023-04-22T00:53:05.933Z,10.15
2023-04-22T00:58:08.159Z,10.15
2023-04-22T01:03:13.103Z,10.07
2023-04-22T01:08:15.206Z,10.02
2023-04-22T01:13:17.152Z,10.05
2023-04-22T01:18:20.889Z,9.99
2023-04-22T01:23:22.851Z,9.88
2023-04-22T01:28:27.181Z,9.74
2023-04-22T01:33:33.804Z,9.63
2023-04-22T01:38:38.082Z,9.53
2023-04-22T01:43:42.804Z,9.48
2023-04-22T01:48:50.370Z,9.47
2023-04-22T01:53:54.573Z,9.42
2023-04-22T01:58:58.774Z,9.40
2023-04-22T02:04:02.694Z,9.39
2023-04-22T02:09:11.715Z,9.39
2023-04-22T02:14:13.733Z,9.42
2023-04-22T02:19:22.418Z,9.50
2023-04-22T02:24:24.084Z,9.56
2023-04-22T02:29:26.133Z,9.60
2023-04-22T02:34:31.921Z,9.57
2023-04-22T02:39:33.743Z,9.52
2023-04-22T02:44:36.318Z,9.51
2023-04-22T02:49:40.293Z,9.44
2023-04-22T02:54:42.206Z,9.36
2023-04-22T02:59:46.604Z,9.31
2023-04-22T03:04:54.424Z,9.27
2023-04-22T03:09:56.357Z,9.27
2023-04-22T03:14:58.787Z,9.23
2023-04-22T03:20:05.128Z,9.20
2023-04-22T03:25:07.216Z,9.17
2023-04-22T03:30:12.004Z,9.12
2023-04-22T03:35:13.910Z,9.07
2023-04-22T03:40:20.438Z,9.07
2023-04-22T03:45:23.377Z,9.08
2023-04-22T03:50:49.926Z,9.16
2023-04-22T03:55:52.392Z,9.22
2023-04-22T04:00:54.361Z,9.34
2023-04-22T04:05:56.121Z,9.50
2023-04-22T04:10:58.061Z,9.55
2023-04-22T04:16:01.102Z,9.60
2023-04-22T04:21:09.520Z,9.74
2023-04-22T04:26:16.745Z,9.87
2023-04-22T04:31:24.789Z,9.89
2023-04-22T04:36:29.467Z,9.93
2023-04-22T04:41:43.401Z,10.02
2023-04-22T04:46:46.734Z,9.94
2023-04-22T04:51:49.324Z,9.84
2023-04-22T04:56:53.651Z,9.72
2023-04-22T05:01:58.064Z,9.64
2023-04-22T05:07:05.895Z,9.58
2023-04-22T05:12:12.946Z,9.57
2023-04-22T05:17:14.722Z,9.58
2023-04-22T05:22:17.997Z,9.71
2023-04-22T05:27:22.156Z,9.84
2023-04-22T05:32:23.932Z,9.95
2023-04-22T05:37:26.368Z,10.05
2023-04-22T05:42:33.251Z,10.19
2023-04-22T05:47:35.381Z,10.30
2023-04-22T05:52:38.223Z,10.37
2023-04-22T05:57:51.510Z,10.56
2023-04-22T06:03:07.327Z,10.75
2023-04-22T06:08:10.895Z,11.01
2023-04-22T06:13:12.612Z,11.28
2023-04-22T06:18:17.501Z,11.58
2023-04-22T06:23:19.728Z,11.65
2023-04-22T06:28:22.539Z,11.53
2023-04-22T06:33:28.122Z,11.43
2023-04-22T06:38:30.293Z,11.47
2023-04-22T06:43:54.464Z,11.53
2023-04-22T06:49:19.576Z,11.56
2023-04-22T06:54:42.173Z,11.65
2023-04-22T06:59:46.732Z,11.79
2023-04-22T07:04:49.539Z,11.92
2023-04-22T07:09:51.307Z,12.01
2023-04-22T07:14:55.265Z,12.02
2023-04-22T07:19:57.065Z,11.97
2023-04-22T07:25:01.299Z,11.98
2023-04-22T07:30:05.726Z,12.32
2023-04-22T07:35:10.961Z,12.75
2023-04-22T07:40:14.880Z,13.06
2023-04-22T07:45:16.694Z,13.31
2023-04-22T07:50:20.815Z,13.46
2023-04-22T07:55:27.495Z,13.80
2023-04-22T08:00:29.407Z,14.12
2023-04-22T08:05:32.654Z,14.46
2023-04-22T08:10:36.958Z,14.93
2023-04-22T08:15:41.319Z,15.47
2023-04-22T08:20:43.077Z,15.94
2023-04-22T08:25:48.130Z,16.05
2023-04-22T08:30:52.062Z,16.03
2023-04-22T08:35:53.842Z,16.03
2023-04-22T08:40:59.083Z,15.90
2023-04-22T08:46:05.670Z,16.04
2023-04-22T08:51:08.686Z,16.33
2023-04-22T08:56:12.758Z,16.61
2023-04-22T09:01:15.446Z,16.83
2023-04-22T09:06:20.092Z,16.80
2023-04-22T09:11:22.342Z,16.80
2023-04-22T09:16:24.218Z,16.99
2023-04-22T09:21:29.935Z,17.19
2023-04-22T09:26:31.901Z,17.28
2023-04-22T09:31:38.230Z,17.43
2023-04-22T09:36:42.933Z,17.63
2023-04-22T09:41:47.143Z,17.56
2023-04-22T09:46:51.302Z,17.50
2023-04-22T09:51:59.243Z,17.56
2023-04-22T09:57:02.555Z,17.48
2023-04-22T10:02:04.638Z,17.56
2023-04-22T10:07:11.292Z,17.69
2023-04-22T10:12:15.119Z,17.91
2023-04-22T10:17:20.071Z,18.00
2023-04-22T10:22:24.669Z,18.30
2023-04-22T10:27:28.979Z,18.51
2023-04-22T10:32:31.074Z,18.70
2023-04-22T10:37:33.840Z,18.88
2023-04-22T10:42:36.194Z,19.09
2023-04-22T10:47:42.664Z,19.45
2023-04-22T10:52:51.046Z,20.04
2023-04-22T10:57:55.560Z,20.53
2023-04-22T11:03:10.794Z,21.06
2023-04-22T11:08:16.654Z,21.19
2023-04-22T11:13:21.654Z,21.23
2023-04-22T11:18:27.455Z,21.36
2023-04-22T11:23:29.241Z,21.32
2023-04-22T11:28:31.467Z,21.78
2023-04-22T11:33:38.511Z,22.23
2023-04-22T11:38:40.249Z,22.44
2023-04-22T11:43:54.850Z,22.77
2023-04-22T11:49:12.480Z,22.86
2023-04-22T11:54:14.432Z,22.98
2023-04-22T11:59:18.335Z,23.10
2023-04-22T12:04:23.552Z,23.07
2023-04-22T12:09:26.069Z,23.14
2023-04-22T12:14:37.591Z,23.90
2023-04-22T12:19:39.622Z,25.48
2023-04-22T12:24:46.318Z,25.63
2023-04-22T12:29:57.805Z,26.67
2023-04-22T12:34:59.572Z,26.19
2023-04-22T12:40:01.298Z,26.36
2023-04-22T12:45:03.533Z,25.62
2023-04-22T12:50:09.618Z,25.68
2023-04-22T12:55:13.857Z,26.81
2023-04-22T13:00:18.316Z,26.77
2023-04-22T13:05:20.295Z,26.21
2023-04-22T13:10:24.410Z,26.94
2023-04-22T13:15:31.722Z,28.62
2023-04-22T13:20:36.162Z,29.20
2023-04-22T13:25:42.795Z,27.40
2023-04-22T13:30:44.670Z,27.18
2023-04-22T13:35:46.640Z,28.68
2023-04-22T13:40:51.164Z,29.93
2023-04-22T13:45:53.042Z,30.38
2023-04-22T13:50:54.812Z,30.37
2023-04-22T13:55:56.701Z,30.07
2023-04-22T14:01:00.620Z,29.80
2023-04-22T14:06:03.775Z,29.27
2023-04-22T14:11:09.113Z,27.79
2023-04-22T14:16:12.076Z,29.95
2023-04-22T14:21:16.300Z,29.98
2023-04-22T14:26:20.863Z,28.36
2023-04-22T14:31:24.247Z,27.59
2023-04-22T14:36:27.016Z,30.09
2023-04-22T14:41:30.961Z,34.46
2023-04-22T14:46:32.727Z,35.77
2023-04-22T14:51:35.464Z,33.33
2023-04-22T14:56:42.414Z,30.53
2023-04-22T15:01:46.723Z,31.07
2023-04-22T15:06:48.468Z,34.91
2023-04-22T15:11:51.009Z,33.20
2023-04-22T15:16:52.823Z,30.56
2023-04-22T15:21:54.834Z,33.30
2023-04-22T15:26:56.920Z,34.73
2023-04-22T15:32:04.545Z,34.23
2023-04-22T15:37:09.355Z,30.41
2023-04-22T15:42:16.256Z,28.55
2023-04-22T15:47:20.052Z,27.85
2023-04-22T15:52:24.318Z,30.27
2023-04-22T15:57:28.628Z,29.00
2023-04-22T16:02:32.736Z,26.93
2023-04-22T16:07:39.133Z,25.54
2023-04-22T16:12:42.021Z,24.90
2023-04-22T16:17:44.349Z,24.18
2023-04-22T16:22:48.477Z,23.09
2023-04-22T16:27:50.365Z,21.08
2023-04-22T16:32:52.130Z,19.88
2023-04-22T16:37:56.028Z,19.13
2023-04-22T16:43:05.172Z,19.08
2023-04-22T16:48:06.871Z,19.07
2023-04-22T16:53:09.968Z,19.26
2023-04-22T16:58:12.374Z,19.30
2023-04-22T17:03:14.421Z,19.59
2023-04-22T17:08:19.680Z,19.65
2023-04-22T17:13:26.107Z,19.53
2023-04-22T17:18:28.441Z,19.76
2023-04-22T17:23:30.120Z,19.43
2023-04-22T17:28:34.451Z,19.52
2023-04-22T17:33:39.905Z,18.72
2023-04-22T17:38:41.697Z,17.81
2023-04-22T17:43:43.465Z,17.06
2023-04-22T17:48:46.698Z,16.23
2023-04-22T17:53:53.326Z,15.88
2023-04-22T17:58:59.397Z,15.72
2023-04-22T18:04:01.514Z,15.57
2023-04-22T18:09:05.794Z,15.45
2023-04-22T18:14:08.104Z,15.44
2023-04-22T18:19:09.865Z,15.42
2023-04-22T18:24:14.846Z,15.77
2023-04-22T18:29:16.585Z,15.49
2023-04-22T18:34:18.403Z,15.34
2023-04-22T18:39:22.691Z,15.23
2023-04-22T18:44:24.408Z,15.20
2023-04-22T18:49:28.504Z,15.12
2023-04-22T18:54:32.699Z,15.11
2023-04-22T18:59:36.660Z,15.03
2023-04-22T19:04:40.932Z,15.02
2023-04-22T19:09:43.052Z,15.03
2023-04-22T19:14:50.057Z,15.00
2023-04-22T19:19:54.914Z,14.95
2023-04-22T19:24:58.610Z,14.93
2023-04-22T19:30:01.073Z,14.94
2023-04-22T19:35:08.949Z,15.00
2023-04-22T19:40:11.105Z,15.02
2023-04-22T19:45:15.264Z,14.96
2023-04-22T19:50:17.800Z,14.97
2023-04-22T19:55:22.807Z,14.97
2023-04-22T20:00:25.122Z,14.97
2023-04-22T20:05:27.363Z,14.90
2023-04-22T20:10:34.915Z,14.87
2023-04-22T20:15:39.931Z,14.85
2023-04-22T20:20:46.322Z,14.83
2023-04-22T20:25:49.578Z,14.88
2023-04-22T20:30:53.730Z,14.86
2023-04-22T20:35:55.847Z,14.80
2023-04-22T20:40:59.196Z,14.74
2023-04-22T20:46:01.701Z,14.77
2023-04-22T20:51:06.816Z,14.63
2023-04-22T20:56:08.919Z,14.46
2023-04-22T21:01:16.254Z,14.36
2023-04-22T21:06:22.580Z,14.36
2023-04-22T21:11:27.384Z,14.36
2023-04-22T21:16:36.364Z,14.30
2023-04-22T21:21:39.036Z,14.24
2023-04-22T21:26:43.157Z,14.09
2023-04-22T21:32:04.998Z,14.08
2023-04-22T21:37:12.822Z,13.88
2023-04-22T21:42:14.572Z,13.95
2023-04-22T21:47:18.802Z,13.88
2023-04-22T21:52:20.521Z,13.85
2023-04-22T21:57:22.474Z,13.75
2023-04-22T22:02:26.703Z,13.54
2023-04-22T22:07:34.493Z,13.07
2023-04-22T22:12:36.499Z,12.84
2023-04-22T22:17:40.141Z,12.55
2023-04-22T22:22:45.954Z,12.33
2023-04-22T22:27:49.108Z,12.39
2023-04-22T22:32:51.132Z,12.24
2023-04-22T22:37:52.878Z,12.07
2023-04-22T22:42:54.626Z,11.99
2023-04-22T22:47:58.628Z,11.82
2023-04-22T22:53:02.890Z,11.79
2023-04-22T22:58:06.810Z,11.72
2023-04-22T23:03:09.885Z,11.70
2023-04-22T23:08:14.749Z,11.68
2023-04-22T23:13:16.481Z,11.58
2023-04-22T23:18:20.673Z,11.47
2023-04-22T23:23:23.196Z,11.47
2023-04-22T23:28:25.136Z,11.44
2023-04-22T23:33:28.209Z,11.38
2023-04-22T23:38:33.004Z,11.30
2023-04-22T23:43:34.807Z,11.18
2023-04-22T23:48:38.871Z,11.02
2023-04-22T23:53:42.750Z,10.95
2023-04-22T23:58:47.604Z,10.83
